Harshaw, Wisconsin
Current Conditions -  °F | °C
As of 6:53 PM on Wednesday 17 Dec 2014 (Local Time) from KRHI Reporting Station
Overcast Overcast  
Wind Chill: 13°   Ceiling: 800
Heat Index: 20°   Visibility: 10mi
Dew Point: 17°   Wind: 5mph
Humidity: 89%   Direction: 330°NNW
Pressure: 30.2"   Gusts: NA
Location:  45.67°N, 89.66°W
Report Text: KRHI 180053Z AUTO 33004KT 10SM OVC008 M07/M08 A3020 RMK AO2 SLP257 T10671083
Loading
Personal Weather Stations






























Interactive Weather Map New forecast layout! Learn more

10-Day Weather Forecast

Advertisements
Track Severe Weather on mobile